| Date | Time | Temp. (oF) | Dew Point (oF) | Rel. Hum. (%) | Press. (in.) | Wind Dir. | Wind Speed (mph) | Hourly Rainfall (in.) |
|
|---|---|---|---|---|---|---|---|---|---|
| 1 | 03/06 | 00:00 | 39 | 29 | 68 | 30.23 | SSW | 6 | 0.00 |
| 2 | 03/05 | 23:00 | 40 | 29 | 66 | 30.25 | SSW | 5 | 0.00 |
| 3 | 03/05 | 22:00 | 38 | 28 | 67 | 30.26 | S | 4 | 0.00 |
| 4 | 03/05 | 21:00 | 35 | 27 | 73 | 30.27 | ESE | 2 | 0.00 |
| 5 | 03/05 | 20:00 | 37 | 25 | 64 | 30.28 | SSE | 2 | 0.00 |
| 6 | 03/05 | 19:00 | 39 | 24 | 56 | 30.29 | S | 3 | 0.00 |
| 7 | 03/05 | 18:00 | 41 | 24 | 52 | 30.28 | S | 4 | 0.00 |
| 8 | 03/05 | 17:00 | 44 | 25 | 48 | 30.29 | S | 11 | 0.00 |
| 9 | 03/05 | 16:00 | 47 | 27 | 46 | 30.29 | SSE | 12 | 0.00 |
| 10 | 03/05 | 15:00 | 48 | 27 | 45 | 30.31 | SSE | 8 | 0.00 |
| 11 | 03/05 | 14:00 | 47 | 26 | 44 | 30.34 | SSE | 9 | 0.00 |
| 12 | 03/05 | 13:00 | 44 | 22 | 43 | 30.38 | SSW | 6 | 0.00 |
| 13 | 03/05 | 12:00 | 43 | 23 | 46 | 30.42 | SSW | 7 | 0.00 |
| 14 | 03/05 | 11:00 | 40 | 22 | 50 | 30.44 | S | 5 | 0.00 |
| 15 | 03/05 | 10:00 | 35 | 22 | 59 | 30.45 | S | 4 | 0.00 |
| 16 | 03/05 | 09:00 | 29 | 22 | 75 | 30.47 | S | 1 | 0.00 |
| 17 | 03/05 | 08:00 | 20 | 18 | 92 | 30.47 | NNE | 0 | 0.00 |
| 18 | 03/05 | 07:00 | 15 | 13 | 92 | 30.46 | NNE | 0 | 0.00 |
| 19 | 03/05 | 06:00 | 16 | 13 | 91 | 30.44 | NNE | 1 | 0.00 |
| 20 | 03/05 | 05:00 | 16 | 12 | 86 | 30.43 | N | 0 | 0.00 |
| 21 | 03/05 | 04:00 | 18 | 14 | 86 | 30.42 | N | 0 | 0.00 |
| 22 | 03/05 | 03:00 | 18 | 13 | 83 | 30.41 | N | 0 | 0.00 |
| 23 | 03/05 | 02:00 | 18 | 13 | 82 | 30.41 | N | 0 | 0.00 |
| 24 | 03/05 | 01:00 | 20 | 13 | 76 | 30.40 | N | 0 | 0.00 |